sensor_id;sensor_type;location;lat;lon;timestamp;P1;durP1;ratioP1;P2;durP2;ratioP2
21639;SDS011;10981;45.462;10.974;2024-01-27T00:01:37;172.75;;;53.55;;
21639;SDS011;10981;45.462;10.974;2024-01-27T00:04:05;163.90;;;52.58;;
21639;SDS011;10981;45.462;10.974;2024-01-27T00:06:34;129.40;;;49.50;;
21639;SDS011;10981;45.462;10.974;2024-01-27T00:09:02;112.38;;;48.65;;
21639;SDS011;10981;45.462;10.974;2024-01-27T00:11:33;115.45;;;50.35;;
21639;SDS011;10981;45.462;10.974;2024-01-27T00:14:01;115.18;;;49.80;;
21639;SDS011;10981;45.462;10.974;2024-01-27T00:16:30;99.97;;;48.40;;
21639;SDS011;10981;45.462;10.974;2024-01-27T00:18:58;119.82;;;51.50;;
21639;SDS011;10981;45.462;10.974;2024-01-27T00:21:26;121.70;;;48.67;;
21639;SDS011;10981;45.462;10.974;2024-01-27T00:23:55;103.65;;;47.63;;
21639;SDS011;10981;45.462;10.974;2024-01-27T00:26:28;103.70;;;51.47;;
21639;SDS011;10981;45.462;10.974;2024-01-27T00:28:56;100.20;;;48.67;;
21639;SDS011;10981;45.462;10.974;2024-01-27T00:31:24;104.38;;;48.55;;
21639;SDS011;10981;45.462;10.974;2024-01-27T00:33:53;117.68;;;48.75;;
21639;SDS011;10981;45.462;10.974;2024-01-27T00:36:21;105.28;;;51.30;;
21639;SDS011;10981;45.462;10.974;2024-01-27T00:38:49;97.22;;;46.70;;
21639;SDS011;10981;45.462;10.974;2024-01-27T00:41:18;93.35;;;49.15;;
21639;SDS011;10981;45.462;10.974;2024-01-27T00:43:46;129.73;;;49.08;;
21639;SDS011;10981;45.462;10.974;2024-01-27T00:46:14;103.68;;;50.65;;
21639;SDS011;10981;45.462;10.974;2024-01-27T00:48:42;131.77;;;50.78;;
21639;SDS011;10981;45.462;10.974;2024-01-27T00:51:11;107.55;;;46.72;;
21639;SDS011;10981;45.462;10.974;2024-01-27T00:53:40;109.57;;;49.25;;
21639;SDS011;10981;45.462;10.974;2024-01-27T00:56:08;92.20;;;49.17;;
21639;SDS011;10981;45.462;10.974;2024-01-27T00:58:36;122.43;;;50.13;;
21639;SDS011;10981;45.462;10.974;2024-01-27T01:01:04;100.60;;;46.42;;
21639;SDS011;10981;45.462;10.974;2024-01-27T01:03:33;133.20;;;48.33;;
21639;SDS011;10981;45.462;10.974;2024-01-27T01:06:01;149.65;;;48.67;;
21639;SDS011;10981;45.462;10.974;2024-01-27T01:08:31;114.95;;;47.50;;
21639;SDS011;10981;45.462;10.974;2024-01-27T01:10:59;153.95;;;49.40;;
21639;SDS011;10981;45.462;10.974;2024-01-27T01:13:27;100.85;;;47.03;;
21639;SDS011;10981;45.462;10.974;2024-01-27T01:15:55;108.13;;;48.35;;
21639;SDS011;10981;45.462;10.974;2024-01-27T01:18:24;117.78;;;48.75;;
21639;SDS011;10981;45.462;10.974;2024-01-27T01:20:52;115.53;;;49.92;;
21639;SDS011;10981;45.462;10.974;2024-01-27T01:23:20;117.35;;;50.30;;
21639;SDS011;10981;45.462;10.974;2024-01-27T01:25:49;125.68;;;48.85;;
21639;SDS011;10981;45.462;10.974;2024-01-27T01:28:17;116.47;;;45.97;;
21639;SDS011;10981;45.462;10.974;2024-01-27T01:30:45;130.60;;;49.13;;
21639;SDS011;10981;45.462;10.974;2024-01-27T01:33:14;130.35;;;49.72;;
21639;SDS011;10981;45.462;10.974;2024-01-27T01:35:42;104.60;;;46.88;;
21639;SDS011;10981;45.462;10.974;2024-01-27T01:38:11;113.47;;;47.78;;
21639;SDS011;10981;45.462;10.974;2024-01-27T01:40:39;106.32;;;48.65;;
21639;SDS011;10981;45.462;10.974;2024-01-27T01:43:10;93.63;;;48.40;;
21639;SDS011;10981;45.462;10.974;2024-01-27T01:45:39;98.13;;;49.50;;
21639;SDS011;10981;45.462;10.974;2024-01-27T01:48:07;98.95;;;47.78;;
21639;SDS011;10981;45.462;10.974;2024-01-27T01:50:36;112.68;;;51.20;;
21639;SDS011;10981;45.462;10.974;2024-01-27T01:53:04;105.80;;;52.15;;
21639;SDS011;10981;45.462;10.974;2024-01-27T01:55:33;118.57;;;53.35;;
21639;SDS011;10981;45.462;10.974;2024-01-27T01:58:02;112.40;;;49.25;;
21639;SDS011;10981;45.462;10.974;2024-01-27T02:00:30;100.00;;;51.53;;
21639;SDS011;10981;45.462;10.974;2024-01-27T02:02:59;116.68;;;52.08;;
21639;SDS011;10981;45.462;10.974;2024-01-27T02:05:27;113.75;;;49.15;;
21639;SDS011;10981;45.462;10.974;2024-01-27T02:07:56;114.80;;;50.78;;
21639;SDS011;10981;45.462;10.974;2024-01-27T02:10:27;89.03;;;49.38;;
21639;SDS011;10981;45.462;10.974;2024-01-27T02:12:57;84.57;;;48.92;;
21639;SDS011;10981;45.462;10.974;2024-01-27T02:15:25;85.00;;;49.22;;
21639;SDS011;10981;45.462;10.974;2024-01-27T02:17:53;84.45;;;48.15;;
21639;SDS011;10981;45.462;10.974;2024-01-27T02:20:22;93.43;;;53.60;;
21639;SDS011;10981;45.462;10.974;2024-01-27T02:22:50;85.75;;;49.17;;
21639;SDS011;10981;45.462;10.974;2024-01-27T02:25:18;91.10;;;49.17;;
21639;SDS011;10981;45.462;10.974;2024-01-27T02:27:46;90.93;;;50.17;;
21639;SDS011;10981;45.462;10.974;2024-01-27T02:30:15;90.97;;;50.53;;
21639;SDS011;10981;45.462;10.974;2024-01-27T02:32:43;87.90;;;47.75;;
21639;SDS011;10981;45.462;10.974;2024-01-27T02:35:11;85.75;;;49.10;;
21639;SDS011;10981;45.462;10.974;2024-01-27T02:37:41;88.28;;;49.58;;
21639;SDS011;10981;45.462;10.974;2024-01-27T02:40:09;89.45;;;48.60;;
21639;SDS011;10981;45.462;10.974;2024-01-27T02:42:38;84.20;;;47.05;;
21639;SDS011;10981;45.462;10.974;2024-01-27T02:45:09;85.22;;;48.97;;
21639;SDS011;10981;45.462;10.974;2024-01-27T02:47:40;86.75;;;48.80;;
21639;SDS011;10981;45.462;10.974;2024-01-27T02:50:09;85.70;;;47.25;;
21639;SDS011;10981;45.462;10.974;2024-01-27T02:52:37;92.18;;;49.42;;
21639;SDS011;10981;45.462;10.974;2024-01-27T02:55:06;87.32;;;49.38;;
21639;SDS011;10981;45.462;10.974;2024-01-27T02:57:34;85.30;;;49.10;;
21639;SDS011;10981;45.462;10.974;2024-01-27T03:00:03;93.47;;;50.53;;
21639;SDS011;10981;45.462;10.974;2024-01-27T03:02:32;92.45;;;48.17;;
21639;SDS011;10981;45.462;10.974;2024-01-27T03:05:00;90.75;;;50.20;;
21639;SDS011;10981;45.462;10.974;2024-01-27T03:07:29;86.28;;;47.72;;
21639;SDS011;10981;45.462;10.974;2024-01-27T03:09:57;84.50;;;47.50;;
21639;SDS011;10981;45.462;10.974;2024-01-27T03:12:25;82.10;;;47.90;;
21639;SDS011;10981;45.462;10.974;2024-01-27T03:14:54;88.68;;;49.20;;
21639;SDS011;10981;45.462;10.974;2024-01-27T03:17:22;78.20;;;45.42;;
21639;SDS011;10981;45.462;10.974;2024-01-27T03:19:50;85.97;;;48.75;;
21639;SDS011;10981;45.462;10.974;2024-01-27T03:22:18;88.82;;;50.00;;
21639;SDS011;10981;45.462;10.974;2024-01-27T03:24:47;82.43;;;47.40;;
21639;SDS011;10981;45.462;10.974;2024-01-27T03:27:15;83.25;;;48.13;;
21639;SDS011;10981;45.462;10.974;2024-01-27T03:29:43;85.32;;;48.38;;
21639;SDS011;10981;45.462;10.974;2024-01-27T03:32:11;88.03;;;47.15;;
21639;SDS011;10981;45.462;10.974;2024-01-27T03:34:43;82.47;;;48.40;;
21639;SDS011;10981;45.462;10.974;2024-01-27T03:37:15;84.32;;;49.67;;
21639;SDS011;10981;45.462;10.974;2024-01-27T03:39:43;86.47;;;48.15;;
21639;SDS011;10981;45.462;10.974;2024-01-27T03:42:11;80.45;;;47.92;;
21639;SDS011;10981;45.462;10.974;2024-01-27T03:44:39;79.72;;;45.47;;
21639;SDS011;10981;45.462;10.974;2024-01-27T03:47:07;81.60;;;46.67;;
21639;SDS011;10981;45.462;10.974;2024-01-27T03:49:35;75.25;;;45.80;;
21639;SDS011;10981;45.462;10.974;2024-01-27T03:52:04;85.47;;;47.20;;
21639;SDS011;10981;45.462;10.974;2024-01-27T03:54:32;84.30;;;47.90;;
21639;SDS011;10981;45.462;10.974;2024-01-27T03:57:01;86.00;;;47.90;;
21639;SDS011;10981;45.462;10.974;2024-01-27T03:59:29;81.15;;;48.15;;
21639;SDS011;10981;45.462;10.974;2024-01-27T04:01:57;81.43;;;47.42;;
21639;SDS011;10981;45.462;10.974;2024-01-27T04:04:25;81.13;;;45.83;;
21639;SDS011;10981;45.462;10.974;2024-01-27T04:06:54;83.43;;;47.70;;
21639;SDS011;10981;45.462;10.974;2024-01-27T04:09:22;82.05;;;45.60;;
21639;SDS011;10981;45.462;10.974;2024-01-27T04:11:51;81.32;;;47.15;;
21639;SDS011;10981;45.462;10.974;2024-01-27T04:14:19;83.53;;;48.70;;
21639;SDS011;10981;45.462;10.974;2024-01-27T04:16:47;86.50;;;48.42;;
21639;SDS011;10981;45.462;10.974;2024-01-27T04:19:16;82.53;;;47.47;;
21639;SDS011;10981;45.462;10.974;2024-01-27T04:21:44;83.68;;;47.85;;
21639;SDS011;10981;45.462;10.974;2024-01-27T04:24:12;81.38;;;48.05;;
21639;SDS011;10981;45.462;10.974;2024-01-27T04:26:40;82.22;;;47.67;;
21639;SDS011;10981;45.462;10.974;2024-01-27T04:29:09;83.70;;;47.35;;
21639;SDS011;10981;45.462;10.974;2024-01-27T04:34:10;82.60;;;48.38;;
21639;SDS011;10981;45.462;10.974;2024-01-27T04:36:38;88.57;;;51.83;;
21639;SDS011;10981;45.462;10.974;2024-01-27T04:39:06;94.55;;;52.22;;
21639;SDS011;10981;45.462;10.974;2024-01-27T04:41:40;85.97;;;51.03;;
21639;SDS011;10981;45.462;10.974;2024-01-27T04:44:10;97.40;;;53.05;;
21639;SDS011;10981;45.462;10.974;2024-01-27T04:46:38;85.78;;;51.15;;
21639;SDS011;10981;45.462;10.974;2024-01-27T04:49:07;89.63;;;50.72;;
21639;SDS011;10981;45.462;10.974;2024-01-27T04:51:35;85.82;;;49.13;;
21639;SDS011;10981;45.462;10.974;2024-01-27T04:54:03;82.13;;;47.25;;
21639;SDS011;10981;45.462;10.974;2024-01-27T04:56:32;81.00;;;47.75;;
21639;SDS011;10981;45.462;10.974;2024-01-27T04:59:00;82.82;;;47.70;;
21639;SDS011;10981;45.462;10.974;2024-01-27T05:01:28;88.85;;;47.95;;
21639;SDS011;10981;45.462;10.974;2024-01-27T05:03:56;84.47;;;47.70;;
21639;SDS011;10981;45.462;10.974;2024-01-27T05:06:25;82.28;;;47.95;;
21639;SDS011;10981;45.462;10.974;2024-01-27T05:08:53;79.85;;;45.55;;
21639;SDS011;10981;45.462;10.974;2024-01-27T05:11:25;87.97;;;49.17;;
21639;SDS011;10981;45.462;10.974;2024-01-27T05:13:58;86.22;;;50.33;;
21639;SDS011;10981;45.462;10.974;2024-01-27T05:16:29;88.20;;;49.33;;
21639;SDS011;10981;45.462;10.974;2024-01-27T05:18:59;83.57;;;48.00;;
21639;SDS011;10981;45.462;10.974;2024-01-27T05:21:27;79.75;;;45.42;;
21639;SDS011;10981;45.462;10.974;2024-01-27T05:23:55;85.80;;;47.30;;
21639;SDS011;10981;45.462;10.974;2024-01-27T05:26:24;86.07;;;48.20;;
21639;SDS011;10981;45.462;10.974;2024-01-27T05:28:52;77.68;;;44.80;;
21639;SDS011;10981;45.462;10.974;2024-01-27T05:31:20;86.43;;;48.95;;
21639;SDS011;10981;45.462;10.974;2024-01-27T05:33:48;82.50;;;47.13;;
21639;SDS011;10981;45.462;10.974;2024-01-27T05:36:17;80.47;;;47.85;;
21639;SDS011;10981;45.462;10.974;2024-01-27T05:38:45;84.15;;;48.25;;
21639;SDS011;10981;45.462;10.974;2024-01-27T05:41:13;83.60;;;47.70;;
21639;SDS011;10981;45.462;10.974;2024-01-27T05:43:42;82.38;;;49.25;;
21639;SDS011;10981;45.462;10.974;2024-01-27T05:46:10;85.50;;;48.00;;
21639;SDS011;10981;45.462;10.974;2024-01-27T05:48:38;85.68;;;47.42;;
21639;SDS011;10981;45.462;10.974;2024-01-27T05:51:06;83.35;;;48.20;;
21639;SDS011;10981;45.462;10.974;2024-01-27T05:53:35;84.88;;;47.38;;
21639;SDS011;10981;45.462;10.974;2024-01-27T05:56:04;80.80;;;45.22;;
21639;SDS011;10981;45.462;10.974;2024-01-27T05:58:32;87.07;;;47.80;;
21639;SDS011;10981;45.462;10.974;2024-01-27T06:01:00;84.50;;;48.13;;
21639;SDS011;10981;45.462;10.974;2024-01-27T06:03:28;85.05;;;47.47;;
21639;SDS011;10981;45.462;10.974;2024-01-27T06:05:58;80.57;;;46.45;;
21639;SDS011;10981;45.462;10.974;2024-01-27T06:08:26;86.93;;;46.67;;
21639;SDS011;10981;45.462;10.974;2024-01-27T06:10:54;100.43;;;46.67;;
21639;SDS011;10981;45.462;10.974;2024-01-27T06:13:23;73.72;;;45.33;;
21639;SDS011;10981;45.462;10.974;2024-01-27T06:15:51;74.38;;;44.97;;
21639;SDS011;10981;45.462;10.974;2024-01-27T06:18:19;72.22;;;42.67;;
21639;SDS011;10981;45.462;10.974;2024-01-27T06:20:48;75.45;;;42.75;;
21639;SDS011;10981;45.462;10.974;2024-01-27T06:23:17;73.00;;;46.85;;
21639;SDS011;10981;45.462;10.974;2024-01-27T06:25:45;71.43;;;44.72;;
21639;SDS011;10981;45.462;10.974;2024-01-27T06:28:13;77.60;;;45.60;;
21639;SDS011;10981;45.462;10.974;2024-01-27T06:30:41;81.47;;;47.65;;
21639;SDS011;10981;45.462;10.974;2024-01-27T06:33:09;84.72;;;47.63;;
21639;SDS011;10981;45.462;10.974;2024-01-27T06:35:38;80.60;;;48.17;;
21639;SDS011;10981;45.462;10.974;2024-01-27T06:38:06;88.50;;;48.33;;
21639;SDS011;10981;45.462;10.974;2024-01-27T06:40:34;78.93;;;46.88;;
21639;SDS011;10981;45.462;10.974;2024-01-27T06:43:02;84.65;;;49.35;;
21639;SDS011;10981;45.462;10.974;2024-01-27T06:45:31;87.93;;;48.95;;
21639;SDS011;10981;45.462;10.974;2024-01-27T06:47:59;84.55;;;48.95;;
21639;SDS011;10981;45.462;10.974;2024-01-27T06:50:27;78.97;;;45.72;;
21639;SDS011;10981;45.462;10.974;2024-01-27T06:52:55;77.72;;;46.65;;
21639;SDS011;10981;45.462;10.974;2024-01-27T06:55:24;75.65;;;45.38;;
21639;SDS011;10981;45.462;10.974;2024-01-27T06:57:52;77.40;;;44.80;;
21639;SDS011;10981;45.462;10.974;2024-01-27T07:00:21;70.85;;;42.25;;
21639;SDS011;10981;45.462;10.974;2024-01-27T07:02:49;71.22;;;42.22;;
21639;SDS011;10981;45.462;10.974;2024-01-27T07:05:18;73.35;;;43.33;;
21639;SDS011;10981;45.462;10.974;2024-01-27T07:07:46;65.90;;;41.60;;
21639;SDS011;10981;45.462;10.974;2024-01-27T07:10:14;70.28;;;43.70;;
21639;SDS011;10981;45.462;10.974;2024-01-27T07:12:42;76.80;;;42.13;;
21639;SDS011;10981;45.462;10.974;2024-01-27T07:15:11;75.13;;;45.65;;
21639;SDS011;10981;45.462;10.974;2024-01-27T07:17:39;73.60;;;44.38;;
21639;SDS011;10981;45.462;10.974;2024-01-27T07:20:07;78.03;;;45.13;;
21639;SDS011;10981;45.462;10.974;2024-01-27T07:22:36;74.53;;;45.40;;
21639;SDS011;10981;45.462;10.974;2024-01-27T07:25:04;74.38;;;43.78;;
21639;SDS011;10981;45.462;10.974;2024-01-27T07:27:34;79.55;;;45.33;;
21639;SDS011;10981;45.462;10.974;2024-01-27T07:30:02;81.32;;;46.30;;
21639;SDS011;10981;45.462;10.974;2024-01-27T07:32:32;82.38;;;44.53;;
21639;SDS011;10981;45.462;10.974;2024-01-27T07:35:01;78.72;;;44.67;;
21639;SDS011;10981;45.462;10.974;2024-01-27T07:37:29;77.72;;;46.25;;
21639;SDS011;10981;45.462;10.974;2024-01-27T07:39:58;87.75;;;47.88;;
21639;SDS011;10981;45.462;10.974;2024-01-27T07:42:26;89.38;;;47.40;;
21639;SDS011;10981;45.462;10.974;2024-01-27T07:44:54;89.60;;;47.92;;
21639;SDS011;10981;45.462;10.974;2024-01-27T07:47:22;84.65;;;45.88;;
21639;SDS011;10981;45.462;10.974;2024-01-27T07:49:51;98.22;;;50.60;;
21639;SDS011;10981;45.462;10.974;2024-01-27T07:52:19;95.93;;;51.20;;
21639;SDS011;10981;45.462;10.974;2024-01-27T07:54:48;105.13;;;54.60;;
21639;SDS011;10981;45.462;10.974;2024-01-27T07:57:16;96.28;;;51.75;;
21639;SDS011;10981;45.462;10.974;2024-01-27T07:59:44;97.68;;;52.42;;
21639;SDS011;10981;45.462;10.974;2024-01-27T08:02:13;104.00;;;52.70;;
21639;SDS011;10981;45.462;10.974;2024-01-27T08:04:41;93.70;;;50.90;;
21639;SDS011;10981;45.462;10.974;2024-01-27T08:07:10;90.55;;;51.70;;
21639;SDS011;10981;45.462;10.974;2024-01-27T08:09:38;90.43;;;51.13;;
21639;SDS011;10981;45.462;10.974;2024-01-27T08:12:07;110.53;;;57.63;;
21639;SDS011;10981;45.462;10.974;2024-01-27T08:14:35;107.35;;;57.10;;
21639;SDS011;10981;45.462;10.974;2024-01-27T08:17:03;102.47;;;58.78;;
21639;SDS011;10981;45.462;10.974;2024-01-27T08:19:32;90.47;;;52.38;;
21639;SDS011;10981;45.462;10.974;2024-01-27T08:22:01;85.40;;;48.40;;
21639;SDS011;10981;45.462;10.974;2024-01-27T08:24:29;83.55;;;49.08;;
21639;SDS011;10981;45.462;10.974;2024-01-27T08:26:58;80.10;;;45.92;;
21639;SDS011;10981;45.462;10.974;2024-01-27T08:29:27;79.57;;;45.92;;
21639;SDS011;10981;45.462;10.974;2024-01-27T08:31:56;72.55;;;43.30;;
21639;SDS011;10981;45.462;10.974;2024-01-27T08:34:24;70.93;;;42.92;;
21639;SDS011;10981;45.462;10.974;2024-01-27T08:36:52;69.20;;;40.17;;
21639;SDS011;10981;45.462;10.974;2024-01-27T08:39:20;57.28;;;35.50;;
21639;SDS011;10981;45.462;10.974;2024-01-27T08:41:49;65.75;;;34.33;;
21639;SDS011;10981;45.462;10.974;2024-01-27T08:44:17;52.55;;;32.15;;
21639;SDS011;10981;45.462;10.974;2024-01-27T08:46:45;59.33;;;34.30;;
21639;SDS011;10981;45.462;10.974;2024-01-27T08:49:13;67.53;;;36.58;;
21639;SDS011;10981;45.462;10.974;2024-01-27T08:51:41;60.17;;;35.03;;
21639;SDS011;10981;45.462;10.974;2024-01-27T08:54:10;64.65;;;35.65;;
21639;SDS011;10981;45.462;10.974;2024-01-27T08:56:41;63.08;;;34.00;;
21639;SDS011;10981;45.462;10.974;2024-01-27T08:59:09;63.67;;;34.17;;
21639;SDS011;10981;45.462;10.974;2024-01-27T09:01:37;56.15;;;33.25;;
21639;SDS011;10981;45.462;10.974;2024-01-27T09:04:05;58.50;;;34.88;;
21639;SDS011;10981;45.462;10.974;2024-01-27T09:06:34;61.90;;;34.97;;
21639;SDS011;10981;45.462;10.974;2024-01-27T09:09:02;50.83;;;31.90;;
21639;SDS011;10981;45.462;10.974;2024-01-27T09:11:31;66.90;;;37.83;;
21639;SDS011;10981;45.462;10.974;2024-01-27T09:14:01;58.33;;;32.20;;
21639;SDS011;10981;45.462;10.974;2024-01-27T09:16:29;47.72;;;28.85;;
21639;SDS011;10981;45.462;10.974;2024-01-27T09:18:58;46.42;;;26.15;;
21639;SDS011;10981;45.462;10.974;2024-01-27T09:21:26;56.55;;;29.85;;
21639;SDS011;10981;45.462;10.974;2024-01-27T09:24:00;60.40;;;32.72;;
21639;SDS011;10981;45.462;10.974;2024-01-27T09:26:29;56.00;;;33.30;;
21639;SDS011;10981;45.462;10.974;2024-01-27T09:28:58;57.58;;;31.25;;
21639;SDS011;10981;45.462;10.974;2024-01-27T09:31:26;53.65;;;31.63;;
21639;SDS011;10981;45.462;10.974;2024-01-27T09:33:55;57.15;;;32.65;;
21639;SDS011;10981;45.462;10.974;2024-01-27T09:36:24;55.42;;;32.25;;
21639;SDS011;10981;45.462;10.974;2024-01-27T09:38:53;58.33;;;32.25;;
21639;SDS011;10981;45.462;10.974;2024-01-27T09:41:21;57.72;;;32.47;;
21639;SDS011;10981;45.462;10.974;2024-01-27T09:43:50;55.03;;;32.28;;
21639;SDS011;10981;45.462;10.974;2024-01-27T09:46:21;68.82;;;32.83;;
21639;SDS011;10981;45.462;10.974;2024-01-27T09:48:49;78.32;;;37.03;;
21639;SDS011;10981;45.462;10.974;2024-01-27T09:51:18;75.72;;;37.58;;
21639;SDS011;10981;45.462;10.974;2024-01-27T09:53:47;87.88;;;39.22;;
21639;SDS011;10981;45.462;10.974;2024-01-27T09:56:19;97.35;;;42.22;;
21639;SDS011;10981;45.462;10.974;2024-01-27T09:58:49;89.05;;;42.00;;
21639;SDS011;10981;45.462;10.974;2024-01-27T10:01:18;88.93;;;40.80;;
21639;SDS011;10981;45.462;10.974;2024-01-27T10:03:47;88.25;;;42.67;;
21639;SDS011;10981;45.462;10.974;2024-01-27T10:06:16;79.60;;;40.33;;
21639;SDS011;10981;45.462;10.974;2024-01-27T10:08:48;78.53;;;37.65;;
21639;SDS011;10981;45.462;10.974;2024-01-27T10:11:23;70.18;;;38.85;;
21639;SDS011;10981;45.462;10.974;2024-01-27T10:13:55;77.05;;;38.97;;
21639;SDS011;10981;45.462;10.974;2024-01-27T10:16:26;74.78;;;37.92;;
21639;SDS011;10981;45.462;10.974;2024-01-27T10:18:59;75.07;;;38.55;;
21639;SDS011;10981;45.462;10.974;2024-01-27T10:21:28;68.72;;;38.40;;
21639;SDS011;10981;45.462;10.974;2024-01-27T10:23:57;74.38;;;36.83;;
21639;SDS011;10981;45.462;10.974;2024-01-27T10:26:30;68.05;;;34.50;;
21639;SDS011;10981;45.462;10.974;2024-01-27T10:28:59;72.53;;;37.53;;
21639;SDS011;10981;45.462;10.974;2024-01-27T10:31:34;66.07;;;35.78;;
21639;SDS011;10981;45.462;10.974;2024-01-27T10:34:05;78.05;;;38.67;;
21639;SDS011;10981;45.462;10.974;2024-01-27T10:36:42;80.53;;;39.63;;
21639;SDS011;10981;45.462;10.974;2024-01-27T10:39:20;78.25;;;38.30;;
21639;SDS011;10981;45.462;10.974;2024-01-27T10:41:50;65.70;;;37.30;;
21639;SDS011;10981;45.462;10.974;2024-01-27T10:44:19;73.53;;;37.97;;
21639;SDS011;10981;45.462;10.974;2024-01-27T10:46:49;77.95;;;39.83;;
21639;SDS011;10981;45.462;10.974;2024-01-27T10:49:17;84.07;;;44.05;;
21639;SDS011;10981;45.462;10.974;2024-01-27T10:51:51;83.90;;;41.45;;
21639;SDS011;10981;45.462;10.974;2024-01-27T10:54:23;79.38;;;41.97;;
21639;SDS011;10981;45.462;10.974;2024-01-27T10:56:55;80.65;;;43.17;;
21639;SDS011;10981;45.462;10.974;2024-01-27T10:59:26;88.43;;;42.47;;
21639;SDS011;10981;45.462;10.974;2024-01-27T11:01:55;88.90;;;42.58;;
21639;SDS011;10981;45.462;10.974;2024-01-27T11:04:25;91.82;;;46.00;;
21639;SDS011;10981;45.462;10.974;2024-01-27T11:06:55;94.55;;;44.97;;
21639;SDS011;10981;45.462;10.974;2024-01-27T11:09:25;97.32;;;45.85;;
21639;SDS011;10981;45.462;10.974;2024-01-27T11:11:55;92.03;;;45.20;;
21639;SDS011;10981;45.462;10.974;2024-01-27T11:14:24;96.03;;;46.28;;
21639;SDS011;10981;45.462;10.974;2024-01-27T11:16:56;95.43;;;46.33;;
21639;SDS011;10981;45.462;10.974;2024-01-27T11:19:25;99.35;;;44.35;;
21639;SDS011;10981;45.462;10.974;2024-01-27T11:22:01;103.65;;;47.08;;
21639;SDS011;10981;45.462;10.974;2024-01-27T11:24:30;96.05;;;45.58;;
21639;SDS011;10981;45.462;10.974;2024-01-27T11:29:34;96.43;;;50.63;;
21639;SDS011;10981;45.462;10.974;2024-01-27T11:32:14;103.85;;;47.60;;
21639;SDS011;10981;45.462;10.974;2024-01-27T11:34:46;99.38;;;45.58;;
21639;SDS011;10981;45.462;10.974;2024-01-27T11:37:15;99.90;;;47.10;;
21639;SDS011;10981;45.462;10.974;2024-01-27T11:39:44;103.70;;;48.70;;
21639;SDS011;10981;45.462;10.974;2024-01-27T11:42:13;99.18;;;49.70;;
21639;SDS011;10981;45.462;10.974;2024-01-27T11:44:42;101.70;;;48.08;;
21639;SDS011;10981;45.462;10.974;2024-01-27T11:47:14;104.78;;;49.63;;
21639;SDS011;10981;45.462;10.974;2024-01-27T11:49:50;102.32;;;48.38;;
21639;SDS011;10981;45.462;10.974;2024-01-27T11:52:24;99.43;;;47.70;;
21639;SDS011;10981;45.462;10.974;2024-01-27T11:54:58;106.30;;;50.50;;
21639;SDS011;10981;45.462;10.974;2024-01-27T11:57:27;106.68;;;49.28;;
21639;SDS011;10981;45.462;10.974;2024-01-27T11:59:56;96.00;;;47.40;;
21639;SDS011;10981;45.462;10.974;2024-01-27T12:02:24;107.82;;;51.45;;
21639;SDS011;10981;45.462;10.974;2024-01-27T12:04:52;99.90;;;49.80;;
21639;SDS011;10981;45.462;10.974;2024-01-27T12:07:22;104.70;;;50.05;;
21639;SDS011;10981;45.462;10.974;2024-01-27T12:09:50;104.13;;;49.53;;
21639;SDS011;10981;45.462;10.974;2024-01-27T12:12:19;105.20;;;49.08;;
21639;SDS011;10981;45.462;10.974;2024-01-27T12:14:49;104.03;;;49.88;;
21639;SDS011;10981;45.462;10.974;2024-01-27T12:17:18;108.97;;;52.40;;
21639;SDS011;10981;45.462;10.974;2024-01-27T12:19:50;103.15;;;52.00;;
21639;SDS011;10981;45.462;10.974;2024-01-27T12:22:23;107.20;;;52.45;;
21639;SDS011;10981;45.462;10.974;2024-01-27T12:24:54;109.38;;;55.25;;
21639;SDS011;10981;45.462;10.974;2024-01-27T12:27:23;114.53;;;52.33;;
21639;SDS011;10981;45.462;10.974;2024-01-27T12:29:51;105.03;;;51.28;;
21639;SDS011;10981;45.462;10.974;2024-01-27T12:32:20;116.40;;;53.45;;
21639;SDS011;10981;45.462;10.974;2024-01-27T12:34:48;121.85;;;56.47;;
21639;SDS011;10981;45.462;10.974;2024-01-27T12:37:18;114.55;;;53.17;;
21639;SDS011;10981;45.462;10.974;2024-01-27T12:39:48;134.93;;;58.30;;
21639;SDS011;10981;45.462;10.974;2024-01-27T12:42:18;128.60;;;60.83;;
21639;SDS011;10981;45.462;10.974;2024-01-27T12:44:47;138.40;;;61.70;;
21639;SDS011;10981;45.462;10.974;2024-01-27T12:47:16;138.25;;;61.60;;
21639;SDS011;10981;45.462;10.974;2024-01-27T12:49:46;132.30;;;62.47;;
21639;SDS011;10981;45.462;10.974;2024-01-27T12:52:15;146.65;;;63.05;;
21639;SDS011;10981;45.462;10.974;2024-01-27T12:54:43;139.02;;;63.45;;
21639;SDS011;10981;45.462;10.974;2024-01-27T12:57:11;132.07;;;58.35;;
21639;SDS011;10981;45.462;10.974;2024-01-27T12:59:40;141.07;;;63.55;;
21639;SDS011;10981;45.462;10.974;2024-01-27T13:02:08;148.13;;;63.30;;
21639;SDS011;10981;45.462;10.974;2024-01-27T13:04:36;145.50;;;64.75;;
21639;SDS011;10981;45.462;10.974;2024-01-27T13:07:04;148.15;;;68.22;;
21639;SDS011;10981;45.462;10.974;2024-01-27T13:09:33;133.60;;;63.33;;
21639;SDS011;10981;45.462;10.974;2024-01-27T13:12:03;154.07;;;67.35;;
21639;SDS011;10981;45.462;10.974;2024-01-27T13:14:31;146.82;;;65.07;;
21639;SDS011;10981;45.462;10.974;2024-01-27T13:16:59;148.85;;;68.20;;
21639;SDS011;10981;45.462;10.974;2024-01-27T13:19:28;156.95;;;68.78;;
21639;SDS011;10981;45.462;10.974;2024-01-27T13:21:58;165.70;;;73.07;;
21639;SDS011;10981;45.462;10.974;2024-01-27T13:24:26;150.20;;;67.63;;
21639;SDS011;10981;45.462;10.974;2024-01-27T13:26:55;158.07;;;67.10;;
21639;SDS011;10981;45.462;10.974;2024-01-27T13:29:24;154.02;;;68.80;;
21639;SDS011;10981;45.462;10.974;2024-01-27T13:31:54;156.43;;;66.68;;
21639;SDS011;10981;45.462;10.974;2024-01-27T13:34:25;157.15;;;71.88;;
21639;SDS011;10981;45.462;10.974;2024-01-27T13:36:54;152.90;;;67.40;;
21639;SDS011;10981;45.462;10.974;2024-01-27T13:39:23;155.82;;;69.28;;
21639;SDS011;10981;45.462;10.974;2024-01-27T13:41:52;152.85;;;67.18;;
21639;SDS011;10981;45.462;10.974;2024-01-27T13:44:20;166.93;;;72.03;;
21639;SDS011;10981;45.462;10.974;2024-01-27T13:46:48;166.13;;;72.35;;
21639;SDS011;10981;45.462;10.974;2024-01-27T13:49:16;157.23;;;69.90;;
21639;SDS011;10981;45.462;10.974;2024-01-27T13:51:47;149.18;;;71.13;;
21639;SDS011;10981;45.462;10.974;2024-01-27T13:54:15;159.30;;;68.68;;
21639;SDS011;10981;45.462;10.974;2024-01-27T13:56:43;148.07;;;67.78;;
21639;SDS011;10981;45.462;10.974;2024-01-27T13:59:12;145.18;;;65.72;;
21639;SDS011;10981;45.462;10.974;2024-01-27T14:01:40;147.13;;;66.57;;
21639;SDS011;10981;45.462;10.974;2024-01-27T14:04:08;151.55;;;68.88;;
21639;SDS011;10981;45.462;10.974;2024-01-27T14:06:37;158.23;;;70.38;;
21639;SDS011;10981;45.462;10.974;2024-01-27T14:09:05;149.02;;;68.38;;
21639;SDS011;10981;45.462;10.974;2024-01-27T14:11:34;161.23;;;68.35;;
21639;SDS011;10981;45.462;10.974;2024-01-27T14:14:02;155.55;;;68.45;;
21639;SDS011;10981;45.462;10.974;2024-01-27T14:16:30;150.57;;;68.80;;
21639;SDS011;10981;45.462;10.974;2024-01-27T14:18:58;157.57;;;69.78;;